sensor_id;sensor_type;location;lat;lon;timestamp;pressure;altitude;pressure_sealevel;temperature;humidity
77205;BME280;67992;46.618;18.850;2023-03-01T00:01:13;101305.78;;;16.95;31.29
77205;BME280;67992;46.618;18.850;2023-03-01T00:03:39;101305.06;;;16.93;31.42
77205;BME280;67992;46.618;18.850;2023-03-01T00:06:05;101302.00;;;16.88;31.57
77205;BME280;67992;46.618;18.850;2023-03-01T00:08:31;101298.63;;;16.86;31.77
77205;BME280;67992;46.618;18.850;2023-03-01T00:11:19;101286.66;;;16.81;31.53
77205;BME280;67992;46.618;18.850;2023-03-01T00:13:47;101292.38;;;16.78;31.76
77205;BME280;67992;46.618;18.850;2023-03-01T00:16:16;101296.22;;;16.75;31.81
77205;BME280;67992;46.618;18.850;2023-03-01T00:18:42;101289.31;;;16.73;31.90
77205;BME280;67992;46.618;18.850;2023-03-01T00:21:09;101280.38;;;16.72;31.97
77205;BME280;67992;46.618;18.850;2023-03-01T00:23:36;101279.00;;;16.68;32.01
77205;BME280;67992;46.618;18.850;2023-03-01T00:26:02;101272.25;;;16.64;31.94
77205;BME280;67992;46.618;18.850;2023-03-01T00:28:31;101272.38;;;16.63;32.15
77205;BME280;67992;46.618;18.850;2023-03-01T00:31:05;101271.72;;;16.61;32.04
77205;BME280;67992;46.618;18.850;2023-03-01T00:33:31;101266.50;;;16.59;32.10
77205;BME280;67992;46.618;18.850;2023-03-01T00:36:00;101262.75;;;16.52;32.23
77205;BME280;67992;46.618;18.850;2023-03-01T00:38:26;101271.50;;;16.54;32.33
77205;BME280;67992;46.618;18.850;2023-03-01T00:40:52;101262.19;;;16.49;32.16
77205;BME280;67992;46.618;18.850;2023-03-01T00:43:18;101275.44;;;16.50;32.34
77205;BME280;67992;46.618;18.850;2023-03-01T00:45:44;101264.88;;;16.49;32.26
77205;BME280;67992;46.618;18.850;2023-03-01T00:48:10;101263.16;;;16.48;32.39
77205;BME280;67992;46.618;18.850;2023-03-01T00:50:35;101265.03;;;16.47;32.40
77205;BME280;67992;46.618;18.850;2023-03-01T00:53:01;101270.41;;;16.47;32.46
77205;BME280;67992;46.618;18.850;2023-03-01T00:55:26;101264.66;;;16.42;32.62
77205;BME280;67992;46.618;18.850;2023-03-01T00:57:52;101262.78;;;16.42;32.42
77205;BME280;67992;46.618;18.850;2023-03-01T01:00:19;101258.44;;;16.41;32.69
77205;BME280;67992;46.618;18.850;2023-03-01T01:02:45;101257.88;;;16.38;32.46
77205;BME280;67992;46.618;18.850;2023-03-01T01:05:11;101254.69;;;16.34;32.95
77205;BME280;67992;46.618;18.850;2023-03-01T01:07:37;101250.28;;;16.33;32.67
77205;BME280;67992;46.618;18.850;2023-03-01T01:10:02;101238.94;;;16.22;32.70
77205;BME280;67992;46.618;18.850;2023-03-01T01:12:28;101252.59;;;16.28;32.53
77205;BME280;67992;46.618;18.850;2023-03-01T01:14:54;101249.06;;;16.28;32.77
77205;BME280;67992;46.618;18.850;2023-03-01T01:17:19;101252.22;;;16.23;32.89
77205;BME280;67992;46.618;18.850;2023-03-01T01:19:45;101233.88;;;16.19;33.13
77205;BME280;67992;46.618;18.850;2023-03-01T01:22:10;101237.09;;;16.22;32.72
77205;BME280;67992;46.618;18.850;2023-03-01T01:24:36;101230.34;;;16.18;32.85
77205;BME280;67992;46.618;18.850;2023-03-01T01:27:01;101226.81;;;16.18;32.96
77205;BME280;67992;46.618;18.850;2023-03-01T01:29:27;101230.66;;;16.15;32.97
77205;BME280;67992;46.618;18.850;2023-03-01T01:31:53;101224.75;;;16.12;32.82
77205;BME280;67992;46.618;18.850;2023-03-01T01:34:20;101229.41;;;16.10;33.02
77205;BME280;67992;46.618;18.850;2023-03-01T01:36:52;101213.94;;;16.04;32.87
77205;BME280;67992;46.618;18.850;2023-03-01T01:39:20;101215.59;;;16.05;33.22
77205;BME280;67992;46.618;18.850;2023-03-01T01:41:46;101205.50;;;15.99;32.92
77205;BME280;67992;46.618;18.850;2023-03-01T01:44:20;101212.91;;;16.05;33.34
77205;BME280;67992;46.618;18.850;2023-03-01T01:47:00;101215.59;;;16.05;33.05
77205;BME280;67992;46.618;18.850;2023-03-01T01:52:00;101211.25;;;16.04;33.36
77205;BME280;67992;46.618;18.850;2023-03-01T01:57:19;101200.94;;;15.99;33.26
77205;BME280;67992;46.618;18.850;2023-03-01T01:59:53;101214.53;;;15.98;33.37
77205;BME280;67992;46.618;18.850;2023-03-01T02:02:20;101211.00;;;15.97;33.29
77205;BME280;67992;46.618;18.850;2023-03-01T02:04:47;101191.31;;;15.89;33.28
77205;BME280;67992;46.618;18.850;2023-03-01T02:07:23;101207.06;;;15.92;33.24
77205;BME280;67992;46.618;18.850;2023-03-01T02:09:51;101202.72;;;15.91;33.34
77205;BME280;67992;46.618;18.850;2023-03-01T02:12:21;101202.34;;;15.86;33.55
77205;BME280;67992;46.618;18.850;2023-03-01T02:14:48;101205.72;;;15.88;33.72
77205;BME280;67992;46.618;18.850;2023-03-01T02:17:15;101200.81;;;15.83;33.71
77205;BME280;67992;46.618;18.850;2023-03-01T02:22:22;101198.25;;;15.81;33.26
77205;BME280;67992;46.618;18.850;2023-03-01T02:27:23;101201.09;;;15.80;33.75
77205;BME280;67992;46.618;18.850;2023-03-01T02:29:51;101187.00;;;15.78;33.84
77205;BME280;67992;46.618;18.850;2023-03-01T02:32:18;101189.81;;;15.76;33.89
77205;BME280;67992;46.618;18.850;2023-03-01T02:34:54;101184.59;;;15.75;33.35
77205;BME280;67992;46.618;18.850;2023-03-01T02:37:21;101188.44;;;15.72;33.71
77205;BME280;67992;46.618;18.850;2023-03-01T02:39:55;101187.47;;;15.73;33.58
77205;BME280;67992;46.618;18.850;2023-03-01T02:42:28;101185.75;;;15.72;33.57
77205;BME280;67992;46.618;18.850;2023-03-01T02:44:56;101181.72;;;15.68;33.68
77205;BME280;67992;46.618;18.850;2023-03-01T02:47:21;101176.34;;;15.68;33.76
77205;BME280;67992;46.618;18.850;2023-03-01T02:49:47;101171.78;;;15.69;33.90
77205;BME280;67992;46.618;18.850;2023-03-01T02:52:24;101162.19;;;15.66;34.10
77205;BME280;67992;46.618;18.850;2023-03-01T02:55:16;101177.16;;;15.69;33.95
77205;BME280;67992;46.618;18.850;2023-03-01T02:57:44;101173.94;;;15.65;34.01
77205;BME280;67992;46.618;18.850;2023-03-01T03:00:16;101170.41;;;15.65;33.45
77205;BME280;67992;46.618;18.850;2023-03-01T03:02:53;101175.94;;;15.63;34.06
77205;BME280;67992;46.618;18.850;2023-03-01T03:05:30;101175.22;;;15.61;33.79
77205;BME280;67992;46.618;18.850;2023-03-01T03:07:57;101171.00;;;15.59;34.03
77205;BME280;67992;46.618;18.850;2023-03-01T03:10:29;101166.97;;;15.55;33.60
77205;BME280;67992;46.618;18.850;2023-03-01T03:13:00;101174.84;;;15.56;33.81
77205;BME280;67992;46.618;18.850;2023-03-01T03:15:27;101174.72;;;15.58;34.09
77205;BME280;67992;46.618;18.850;2023-03-01T03:17:53;101147.94;;;15.48;33.86
77205;BME280;67992;46.618;18.850;2023-03-01T03:20:22;101166.28;;;15.53;33.58
77205;BME280;67992;46.618;18.850;2023-03-01T03:22:50;101164.44;;;15.53;33.73
77205;BME280;67992;46.618;18.850;2023-03-01T03:25:17;101142.59;;;15.39;33.73
77205;BME280;67992;46.618;18.850;2023-03-01T03:27:44;101164.88;;;15.49;33.84
77205;BME280;67992;46.618;18.850;2023-03-01T03:30:13;101166.56;;;15.50;34.16
77205;BME280;67992;46.618;18.850;2023-03-01T03:32:41;101163.03;;;15.49;33.95
77205;BME280;67992;46.618;18.850;2023-03-01T03:35:09;101152.19;;;15.41;34.03
77205;BME280;67992;46.618;18.850;2023-03-01T03:37:39;101155.28;;;15.46;34.74
77205;BME280;67992;46.618;18.850;2023-03-01T03:40:24;101162.59;;;15.44;34.18
77205;BME280;67992;46.618;18.850;2023-03-01T03:42:50;101155.72;;;15.42;34.12
77205;BME280;67992;46.618;18.850;2023-03-01T03:45:16;101161.75;;;15.44;34.20
77205;BME280;67992;46.618;18.850;2023-03-01T03:47:43;101152.03;;;15.43;34.59
77205;BME280;67992;46.618;18.850;2023-03-01T03:50:10;101152.19;;;15.41;34.49
77205;BME280;67992;46.618;18.850;2023-03-01T03:52:36;101149.38;;;15.43;34.58
77205;BME280;67992;46.618;18.850;2023-03-01T03:55:02;101145.84;;;15.42;34.32
77205;BME280;67992;46.618;18.850;2023-03-01T03:57:28;101158.22;;;15.43;34.58
77205;BME280;67992;46.618;18.850;2023-03-01T03:59:53;101139.78;;;15.40;34.00
77205;BME280;67992;46.618;18.850;2023-03-01T04:02:19;101146.28;;;15.38;34.01
77205;BME280;67992;46.618;18.850;2023-03-01T04:04:48;101149.09;;;15.36;34.86
77205;BME280;67992;46.618;18.850;2023-03-01T04:07:16;101141.34;;;15.33;34.35
77205;BME280;67992;46.618;18.850;2023-03-01T04:09:42;101138.53;;;15.35;34.50
77205;BME280;67992;46.618;18.850;2023-03-01T04:12:09;101145.72;;;15.34;34.19
77205;BME280;67992;46.618;18.850;2023-03-01T04:14:34;101140.53;;;15.33;34.33
77205;BME280;67992;46.618;18.850;2023-03-01T04:17:00;101143.34;;;15.31;34.60
77205;BME280;67992;46.618;18.850;2023-03-01T04:19:26;101144.34;;;15.30;34.01
77205;BME280;67992;46.618;18.850;2023-03-01T04:21:52;101149.00;;;15.28;34.24
77205;BME280;67992;46.618;18.850;2023-03-01T04:24:19;101144.66;;;15.27;34.31
77205;BME280;67992;46.618;18.850;2023-03-01T04:26:44;101148.19;;;15.28;35.01
77205;BME280;67992;46.618;18.850;2023-03-01T04:29:10;101140.28;;;15.26;34.26
77205;BME280;67992;46.618;18.850;2023-03-01T04:31:35;101135.38;;;15.22;34.34
77205;BME280;67992;46.618;18.850;2023-03-01T04:34:01;101145.78;;;15.25;34.65
77205;BME280;67992;46.618;18.850;2023-03-01T04:36:28;101139.59;;;15.24;34.64
77205;BME280;67992;46.618;18.850;2023-03-01T04:38:55;101136.22;;;15.22;34.65
77205;BME280;67992;46.618;18.850;2023-03-01T04:41:22;101135.38;;;15.22;34.93
77205;BME280;67992;46.618;18.850;2023-03-01T04:43:49;101126.47;;;15.21;35.14
77205;BME280;67992;46.618;18.850;2023-03-01T04:46:18;101128.16;;;15.22;34.76
77205;BME280;67992;46.618;18.850;2023-03-01T04:48:44;101133.53;;;15.22;34.77
77205;BME280;67992;46.618;18.850;2023-03-01T04:51:11;101122.13;;;15.20;34.26
77205;BME280;67992;46.618;18.850;2023-03-01T04:53:41;101121.97;;;15.22;35.06
77205;BME280;67992;46.618;18.850;2023-03-01T04:56:06;101119.44;;;15.20;34.57
77205;BME280;67992;46.618;18.850;2023-03-01T04:58:32;101114.38;;;15.17;34.40
77205;BME280;67992;46.618;18.850;2023-03-01T05:00:58;101119.88;;;15.15;35.10
77205;BME280;67992;46.618;18.850;2023-03-01T05:03:24;101114.81;;;15.12;34.62
77205;BME280;67992;46.618;18.850;2023-03-01T05:05:52;101117.50;;;15.12;34.46
77205;BME280;67992;46.618;18.850;2023-03-01T05:08:18;101108.91;;;15.09;35.34
77205;BME280;67992;46.618;18.850;2023-03-01T05:10:46;101119.63;;;15.09;34.73
77205;BME280;67992;46.618;18.850;2023-03-01T05:13:13;101116.09;;;15.08;34.91
77205;BME280;67992;46.618;18.850;2023-03-01T05:15:39;101108.50;;;15.04;35.00
77205;BME280;67992;46.618;18.850;2023-03-01T05:18:05;101109.38;;;15.04;34.88
77205;BME280;67992;46.618;18.850;2023-03-01T05:20:37;101120.09;;;15.04;34.81
77205;BME280;67992;46.618;18.850;2023-03-01T05:23:03;101122.59;;;15.06;35.65
77205;BME280;67992;46.618;18.850;2023-03-01T05:25:32;101125.97;;;15.08;35.38
77205;BME280;67992;46.618;18.850;2023-03-01T05:28:00;101115.88;;;15.02;34.87
77205;BME280;67992;46.618;18.850;2023-03-01T05:30:31;101125.44;;;15.04;34.66
77205;BME280;67992;46.618;18.850;2023-03-01T05:32:58;101126.44;;;15.03;34.89
77205;BME280;67992;46.618;18.850;2023-03-01T05:35:24;101129.09;;;15.03;35.15
77205;BME280;67992;46.618;18.850;2023-03-01T05:37:50;101125.56;;;15.03;34.94
77205;BME280;67992;46.618;18.850;2023-03-01T05:40:19;101135.47;;;15.02;34.74
77205;BME280;67992;46.618;18.850;2023-03-01T05:42:48;101126.72;;;15.00;35.34
77205;BME280;67992;46.618;18.850;2023-03-01T05:45:15;101135.47;;;15.02;34.93
77205;BME280;67992;46.618;18.850;2023-03-01T05:47:42;101115.75;;;14.94;35.03
77205;BME280;67992;46.618;18.850;2023-03-01T05:50:12;101138.97;;;15.03;35.53
77205;BME280;67992;46.618;18.850;2023-03-01T05:52:38;101138.97;;;15.03;34.48
77205;BME280;67992;46.618;18.850;2023-03-01T05:55:04;101132.94;;;15.01;34.69
77205;BME280;67992;46.618;18.850;2023-03-01T05:57:30;101139.31;;;15.00;34.71
77205;BME280;67992;46.618;18.850;2023-03-01T05:59:55;101138.28;;;15.01;34.85
77205;BME280;67992;46.618;18.850;2023-03-01T06:02:21;101137.44;;;15.00;34.76
77205;BME280;67992;46.618;18.850;2023-03-01T06:04:47;101145.66;;;14.99;35.08
77205;BME280;67992;46.618;18.850;2023-03-01T06:07:14;101144.78;;;14.98;34.85
77205;BME280;67992;46.618;18.850;2023-03-01T06:09:39;101143.25;;;14.96;35.02
77205;BME280;67992;46.618;18.850;2023-03-01T06:12:05;101147.63;;;14.97;34.72
77205;BME280;67992;46.618;18.850;2023-03-01T06:14:31;101146.78;;;14.96;34.89
77205;BME280;67992;46.618;18.850;2023-03-01T06:16:57;101157.50;;;14.96;35.09
77205;BME280;67992;46.618;18.850;2023-03-01T06:19:23;101160.34;;;14.95;35.25
77205;BME280;67992;46.618;18.850;2023-03-01T06:21:49;101154.13;;;14.94;34.97
77205;BME280;67992;46.618;18.850;2023-03-01T06:24:14;101154.13;;;14.94;34.94
77205;BME280;67992;46.618;18.850;2023-03-01T06:26:40;101146.50;;;14.90;35.63
77205;BME280;67992;46.618;18.850;2023-03-01T06:29:05;101156.94;;;14.93;34.92
77205;BME280;67992;46.618;18.850;2023-03-01T06:31:31;101148.66;;;14.86;35.29
77205;BME280;67992;46.618;18.850;2023-03-01T06:33:57;101160.75;;;14.90;35.72
77205;BME280;67992;46.618;18.850;2023-03-01T06:36:22;101157.09;;;14.91;35.51
77205;BME280;67992;46.618;18.850;2023-03-01T06:38:48;101163.44;;;14.90;35.52
77205;BME280;67992;46.618;18.850;2023-03-01T06:41:14;101168.69;;;14.92;35.19
77205;BME280;67992;46.618;18.850;2023-03-01T06:43:39;101162.75;;;14.88;34.82
77205;BME280;67992;46.618;18.850;2023-03-01T06:46:05;101167.34;;;14.69;36.49
77205;BME280;67992;46.618;18.850;2023-03-01T06:48:32;101151.75;;;14.16;36.85
77205;BME280;67992;46.618;18.850;2023-03-01T06:51:00;101170.66;;;14.34;35.86
77205;BME280;67992;46.618;18.850;2023-03-01T06:53:29;101164.84;;;14.48;36.05
77205;BME280;67992;46.618;18.850;2023-03-01T06:55:58;101164.97;;;14.56;36.08
77205;BME280;67992;46.618;18.850;2023-03-01T06:58:25;101171.59;;;14.62;35.97
77205;BME280;67992;46.618;18.850;2023-03-01T07:00:51;101167.91;;;14.63;35.62
77205;BME280;67992;46.618;18.850;2023-03-01T07:03:17;101160.88;;;14.62;35.05
77205;BME280;67992;46.618;18.850;2023-03-01T07:05:43;101147.38;;;14.53;35.84
77205;BME280;67992;46.618;18.850;2023-03-01T07:08:10;101168.31;;;14.68;35.20
77205;BME280;67992;46.618;18.850;2023-03-01T07:10:35;101167.34;;;14.69;34.95
77205;BME280;67992;46.618;18.850;2023-03-01T07:13:01;101160.97;;;14.70;35.60
77205;BME280;67992;46.618;18.850;2023-03-01T07:15:28;101169.00;;;14.70;35.79
77205;BME280;67992;46.618;18.850;2023-03-01T07:17:54;101171.84;;;14.68;35.32
77205;BME280;67992;46.618;18.850;2023-03-01T07:20:20;101156.06;;;14.65;35.77
77205;BME280;67992;46.618;18.850;2023-03-01T07:22:51;101160.28;;;14.68;35.73
77205;BME280;67992;46.618;18.850;2023-03-01T07:25:17;101162.09;;;14.67;36.04
77205;BME280;67992;46.618;18.850;2023-03-01T07:27:43;101165.63;;;14.68;35.86
77205;BME280;67992;46.618;18.850;2023-03-01T07:30:09;101168.47;;;14.66;35.75
77205;BME280;67992;46.618;18.850;2023-03-01T07:32:35;101164.94;;;14.66;35.49
77205;BME280;67992;46.618;18.850;2023-03-01T07:35:03;101155.09;;;14.66;35.53
77205;BME280;67992;46.618;18.850;2023-03-01T07:37:29;101153.38;;;14.65;35.46
77205;BME280;67992;46.618;18.850;2023-03-01T07:39:54;101160.56;;;14.65;35.33
77205;BME280;67992;46.618;18.850;2023-03-01T07:42:20;101149.31;;;14.61;35.78
77205;BME280;67992;46.618;18.850;2023-03-01T07:44:45;101149.84;;;14.65;35.23
77205;BME280;67992;46.618;18.850;2023-03-01T07:47:11;101149.16;;;14.63;35.26
77205;BME280;67992;46.618;18.850;2023-03-01T07:49:36;101149.03;;;14.64;35.39
77205;BME280;67992;46.618;18.850;2023-03-01T07:52:02;101152.69;;;14.63;35.21
77205;BME280;67992;46.618;18.850;2023-03-01T07:54:28;101143.41;;;14.57;35.38
77205;BME280;67992;46.618;18.850;2023-03-01T07:56:53;101152.84;;;14.62;35.53
77205;BME280;67992;46.618;18.850;2023-03-01T07:59:20;101150.28;;;14.60;35.88
77205;BME280;67992;46.618;18.850;2023-03-01T08:01:45;101151.00;;;14.62;35.61
77205;BME280;67992;46.618;18.850;2023-03-01T08:04:11;101141.84;;;14.55;35.97
77205;BME280;67992;46.618;18.850;2023-03-01T08:06:36;101148.47;;;14.61;35.94
77205;BME280;67992;46.618;18.850;2023-03-01T08:09:02;101156.50;;;14.61;35.78
77205;BME280;67992;46.618;18.850;2023-03-01T08:11:28;101149.75;;;14.57;35.07
77205;BME280;67992;46.618;18.850;2023-03-01T08:13:54;101136.78;;;14.52;36.26
77205;BME280;67992;46.618;18.850;2023-03-01T08:16:20;101143.56;;;14.56;35.36
77205;BME280;67992;46.618;18.850;2023-03-01T08:18:45;101152.44;;;14.57;35.71
77205;BME280;67992;46.618;18.850;2023-03-01T08:21:14;101150.75;;;14.55;36.21
77205;BME280;67992;46.618;18.850;2023-03-01T08:23:40;101140.47;;;14.51;35.60
77205;BME280;67992;46.618;18.850;2023-03-01T08:26:08;101138.63;;;14.51;36.05
77205;BME280;67992;46.618;18.850;2023-03-01T08:28:34;101145.38;;;14.55;35.61
77205;BME280;67992;46.618;18.850;2023-03-01T08:31:00;101140.03;;;14.55;35.82
77205;BME280;67992;46.618;18.850;2023-03-01T08:33:26;101141.00;;;14.54;35.70
77205;BME280;67992;46.618;18.850;2023-03-01T08:35:52;101122.97;;;14.47;35.38
77205;BME280;67992;46.618;18.850;2023-03-01T08:38:17;101126.91;;;14.52;35.70
77205;BME280;67992;46.618;18.850;2023-03-01T08:40:43;101138.47;;;14.53;36.08
77205;BME280;67992;46.618;18.850;2023-03-01T08:43:09;101135.81;;;14.53;36.17
77205;BME280;67992;46.618;18.850;2023-03-01T08:45:36;101117.22;;;14.42;35.68
77205;BME280;67992;46.618;18.850;2023-03-01T08:48:05;101136.78;;;14.52;35.84
77205;BME280;67992;46.618;18.850;2023-03-01T08:50:30;101133.41;;;14.50;35.77
77205;BME280;67992;46.618;18.850;2023-03-01T08:52:56;101115.25;;;14.44;36.29
77205;BME280;67992;46.618;18.850;2023-03-01T08:55:24;101124.25;;;14.52;36.38
77205;BME280;67992;46.618;18.850;2023-03-01T08:57:49;101110.59;;;14.46;36.55
77205;BME280;67992;46.618;18.850;2023-03-01T09:00:15;101105.09;;;14.47;35.70
77205;BME280;67992;46.618;18.850;2023-03-01T09:02:42;101099.31;;;14.42;35.91
77205;BME280;67992;46.618;18.850;2023-03-01T09:05:08;101107.06;;;14.45;36.15
77205;BME280;67992;46.618;18.850;2023-03-01T09:07:35;101120.00;;;14.50;36.07
77205;BME280;67992;46.618;18.850;2023-03-01T09:10:01;101113.13;;;14.47;35.84
77205;BME280;67992;46.618;18.850;2023-03-01T09:12:27;101101.16;;;14.42;35.43
77205;BME280;67992;46.618;18.850;2023-03-01T09:14:52;101110.31;;;14.49;35.95
77205;BME280;67992;46.618;18.850;2023-03-01T09:17:18;101106.78;;;14.48;36.46
77205;BME280;67992;46.618;18.850;2023-03-01T09:19:46;101101.25;;;14.50;35.88
77205;BME280;67992;46.618;18.850;2023-03-01T09:22:15;101103.41;;;14.46;35.67
77205;BME280;67992;46.618;18.850;2023-03-01T09:24:43;101106.91;;;14.47;35.68
77205;BME280;67992;46.618;18.850;2023-03-01T09:27:08;101108.78;;;14.46;36.55
77205;BME280;67992;46.618;18.850;2023-03-01T09:29:37;101091.28;;;14.42;36.57
77205;BME280;67992;46.618;18.850;2023-03-01T09:32:03;101100.72;;;14.46;35.92
77205;BME280;67992;46.618;18.850;2023-03-01T09:34:28;101102.41;;;14.47;36.41
77205;BME280;67992;46.618;18.850;2023-03-01T09:36:54;101090.31;;;14.43;35.42
77205;BME280;67992;46.618;18.850;2023-03-01T09:39:20;101078.50;;;14.36;35.87
77205;BME280;67992;46.618;18.850;2023-03-01T09:42:00;101076.50;;;14.38;36.14
77205;BME280;67992;46.618;18.850;2023-03-01T09:44:38;101090.03;;;14.46;36.54
77205;BME280;67992;46.618;18.850;2023-03-01T09:47:29;101083.94;;;14.44;36.05
77205;BME280;67992;46.618;18.850;2023-03-01T09:50:14;101091.97;;;14.44;36.34
77205;BME280;67992;46.618;18.850;2023-03-01T09:52:59;101081.25;;;14.44;36.68
77205;BME280;67992;46.618;18.850;2023-03-01T09:55:29;101077.78;;;14.44;36.68
77205;BME280;67992;46.618;18.850;2023-03-01T09:58:04;101072.00;;;14.39;36.49
77205;BME280;67992;46.618;18.850;2023-03-01T10:00:39;101080.28;;;14.45;36.44
77205;BME280;67992;46.618;18.850;2023-03-01T10:03:20;101078.75;;;14.43;36.15
77205;BME280;67992;46.618;18.850;2023-03-01T10:06:06;101093.97;;;14.42;36.59
77205;BME280;67992;46.618;18.850;2023-03-01T10:11:19;101096.09;;;14.39;36.12
77205;BME280;67992;46.618;18.850;2023-03-01T10:14:05;101103.69;;;14.43;36.31
77205;BME280;67992;46.618;18.850;2023-03-01T10:16:54;101095.78;;;14.42;36.58
77205;BME280;67992;46.618;18.850;2023-03-01T10:19:31;101092.28;;;14.41;36.13
77205;BME280;67992;46.618;18.850;2023-03-01T10:22:05;101088.06;;;14.39;36.27
77205;BME280;67992;46.618;18.850;2023-03-01T10:24:35;101101.47;;;14.39;36.70
77205;BME280;67992;46.618;18.850;2023-03-01T10:27:07;101103.13;;;14.40;36.85
77205;BME280;67992;46.618;18.850;2023-03-01T10:32:49;101099.47;;;14.41;36.24
77205;BME280;67992;46.618;18.850;2023-03-01T10:35:17;101101.31;;;14.40;36.66
77205;BME280;67992;46.618;18.850;2023-03-01T10:38:07;101113.16;;;14.38;36.12
77205;BME280;67992;46.618;18.850;2023-03-01T10:40:35;101103.28;;;14.38;36.52
77205;BME280;67992;46.618;18.850;2023-03-01T10:43:03;101102.28;;;14.39;36.92
77205;BME280;67992;46.618;18.850;2023-03-01T10:50:34;101067.63;;;14.38;36.39
77205;BME280;67992;46.618;18.850;2023-03-01T10:53:04;101065.94;;;14.37;36.66
77205;BME280;67992;46.618;18.850;2023-03-01T10:55:38;101059.59;;;14.38;36.80
77205;BME280;67992;46.618;18.850;2023-03-01T10:58:18;101052.53;;;14.37;36.74
77205;BME280;67992;46.618;18.850;2023-03-01T11:00:59;101034.41;;;14.31;36.52
77205;BME280;67992;46.618;18.850;2023-03-01T11:03:31;101045.50;;;14.36;36.36
77205;BME280;67992;46.618;18.850;2023-03-01T11:06:12;101038.34;;;14.36;37.32
77205;BME280;67992;46.618;18.850;2023-03-01T11:08:47;101027.47;;;14.38;37.37
77205;BME280;67992;46.618;18.850;2023-03-01T11:11:31;101016.91;;;14.36;37.39
77205;BME280;67992;46.618;18.850;2023-03-01T11:13:58;101018.56;;;14.37;36.57
77205;BME280;67992;46.618;18.850;2023-03-01T11:16:31;101020.28;;;14.38;36.68
77205;BME280;67992;46.618;18.850;2023-03-01T11:19:00;101006.19;;;14.36;37.22
77205;BME280;67992;46.618;18.850;2023-03-01T11:21:28;101014.91;;;14.38;36.52
77205;BME280;67992;46.618;18.850;2023-03-01T11:23:56;101010.53;;;14.37;36.48
77205;BME280;67992;46.618;18.850;2023-03-01T11:26:23;100988.88;;;14.31;36.96
77205;BME280;67992;46.618;18.850;2023-03-01T11:28:53;100993.78;;;14.35;37.38
77205;BME280;67992;46.618;18.850;2023-03-01T11:31:24;100993.63;;;14.37;36.51
77205;BME280;67992;46.618;18.850;2023-03-01T11:33:56;100987.28;;;14.38;36.54
77205;BME280;67992;46.618;18.850;2023-03-01T11:36:35;100987.47;;;14.36;36.33
77205;BME280;67992;46.618;18.850;2023-03-01T11:39:46;100979.44;;;14.36;36.05
77205;BME280;67992;46.618;18.850;2023-03-01T11:42:13;100976.59;;;14.38;37.34
77205;BME280;67992;46.618;18.850;2023-03-01T11:44:42;100975.03;;;14.35;36.84
77205;BME280;67992;46.618;18.850;2023-03-01T11:52:18;100971.38;;;14.36;36.39
77205;BME280;67992;46.618;18.850;2023-03-01T11:55:33;100963.34;;;14.36;36.85
77205;BME280;67992;46.618;18.850;2023-03-01T12:08:12;100944.06;;;14.33;37.04
77205;BME280;67992;46.618;18.850;2023-03-01T12:13:38;100936.88;;;14.33;36.82
77205;BME280;67992;46.618;18.850;2023-03-01T12:27:12;100908.94;;;14.26;37.41
77205;BME280;67992;46.618;18.850;2023-03-01T12:35:29;100916.44;;;14.32;36.86
77205;BME280;67992;46.618;18.850;2023-03-01T12:46:15;100896.84;;;14.32;36.93
77205;BME280;67992;46.618;18.850;2023-03-01T12:48:51;100899.66;;;14.30;37.31
77205;BME280;67992;46.618;18.850;2023-03-01T12:51:24;100902.31;;;14.30;37.74
77205;BME280;67992;46.618;18.850;2023-03-01T12:53:53;100905.72;;;14.32;37.28
77205;BME280;67992;46.618;18.850;2023-03-01T12:56:26;100890.78;;;14.30;36.85
77205;BME280;67992;46.618;18.850;2023-03-01T12:59:21;100896.97;;;14.30;36.88
77205;BME280;67992;46.618;18.850;2023-03-01T13:04:20;100894.16;;;14.32;37.36
77205;BME280;67992;46.618;18.850;2023-03-01T13:17:48;100894.28;;;14.30;37.61
77205;BME280;67992;46.618;18.850;2023-03-01T13:20:19;100880.22;;;14.28;37.46
77205;BME280;67992;46.618;18.850;2023-03-01T13:22:46;100878.22;;;14.30;37.17
77205;BME280;67992;46.618;18.850;2023-03-01T13:25:18;100877.25;;;14.31;37.37
77205;BME280;67992;46.618;18.850;2023-03-01T13:27:46;100870.50;;;14.27;37.52
77205;BME280;67992;46.618;18.850;2023-03-01T13:35:46;100878.22;;;14.30;37.70
77205;BME280;67992;46.618;18.850;2023-03-01T13:41:03;100864.16;;;14.28;37.25
77205;BME280;67992;46.618;18.850;2023-03-01T13:43:35;100862.28;;;14.29;37.40
77205;BME280;67992;46.618;18.850;2023-03-01T13:46:30;100860.63;;;14.28;37.94
77205;BME280;67992;46.618;18.850;2023-03-01T13:48:56;100858.81;;;14.28;37.16
77205;BME280;67992;46.618;18.850;2023-03-01T13:51:27;100855.28;;;14.28;37.22
77205;BME280;67992;46.618;18.850;2023-03-01T13:53:55;100850.78;;;14.28;38.19
77205;BME280;67992;46.618;18.850;2023-03-01T13:56:25;100847.94;;;14.30;37.57
77205;BME280;67992;46.618;18.850;2023-03-01T14:01:32;100848.09;;;14.28;38.24
77205;BME280;67992;46.618;18.850;2023-03-01T14:03:59;100847.38;;;14.26;37.32
77205;BME280;67992;46.618;18.850;2023-03-01T14:06:29;100851.91;;;14.26;37.79
77205;BME280;67992;46.618;18.850;2023-03-01T14:09:25;100853.59;;;14.27;37.52
77205;BME280;67992;46.618;18.850;2023-03-01T14:17:21;100842.03;;;14.26;37.23
77205;BME280;67992;46.618;18.850;2023-03-01T14:19:56;100825.44;;;14.23;37.07
77205;BME280;67992;46.618;18.850;2023-03-01T14:22:35;100830.63;;;14.24;37.31
77205;BME280;67992;46.618;18.850;2023-03-01T14:25:06;100830.63;;;14.24;37.12